CW7220 Ibiza-ciudad ES current weather conditions

sailwx.info

Wind from 336 at 4 knots gusting 7

Air temperature 13.9° C
Dewpoint 7.0° C

Last reported at 2019-Nov-12 05:05 UTC.
Time now 2019-Nov-12 05:46 UTC

Location: N 38°54' E 001°25'.
View on Google Maps.

See reports from other nearby stations

  
Tides and Currents Weather Stations Pressure Air Temp Water Temp Dewpoint Dewpoint Depression Visibility Wind Speed Wind Dir Waves Ship Positions
date/time (UTC)wind fromknots sea level pressurealtimeterstation pressurevisibilityair tempwater tempwave heightnotes
2019-Nov-12 05:05 336 4 gusting 7 13.9
2019-Nov-12 05:00 004 4 gusting 8 13.9
2019-Nov-12 04:55 332 3 gusting 6 13.9
2019-Nov-12 04:50 358 5 gusting 7 13.9
2019-Nov-12 04:45 004 7 gusting 12 13.9
2019-Nov-12 04:40 331 4 gusting 7 13.9
2019-Nov-12 04:35 348 6 gusting 12 13.9
2019-Nov-12 04:30 002 5 gusting 12 14.4
2019-Nov-12 04:25 351 4 gusting 10 14.4
2019-Nov-12 04:20 352 3 gusting 7 14.4
2019-Nov-12 04:15 356 4 gusting 8 14.4
2019-Nov-12 04:10 349 6 gusting 12 14.4
2019-Nov-12 04:05 338 4 gusting 7 14.4
2019-Nov-12 04:00 003 4 gusting 7 14.4
2019-Nov-12 03:55 355 1 gusting 8 14.4
2019-Nov-12 03:50 318 2 gusting 6 14.4
2019-Nov-12 03:45 342 1 gusting 7 14.4
2019-Nov-12 03:40 014 3 gusting 8 14.4
2019-Nov-12 03:35 335 6 gusting 8 14.4
2019-Nov-12 03:30 320 4 gusting 6 14.4
2019-Nov-12 03:25 333 4 gusting 8 14.4
2019-Nov-12 03:20 343 2 gusting 7 14.4
2019-Nov-12 03:15 346 3 gusting 6 14.4
2019-Nov-12 03:10 344 3 gusting 5 14.4
2019-Nov-12 03:05 355 1 gusting 4 14.4
2019-Nov-12 03:00 015 0 gusting 2 14.4
2019-Nov-12 02:55 015 0 gusting 1 14.4
2019-Nov-12 02:50 015 0 gusting 2 14.4
2019-Nov-12 02:45 015 1 gusting 6 14.4
2019-Nov-12 02:40 012 2 gusting 7 14.4
2019-Nov-12 02:35 036 3 gusting 8 14.4
2019-Nov-12 02:30 346 4 gusting 10 15.0
2019-Nov-12 02:25 346 4 gusting 7 15.0
2019-Nov-12 02:20 318 5 gusting 11 15.0
2019-Nov-12 02:15 320 6 gusting 11 14.4
2019-Nov-12 02:10 317 5 gusting 8 14.4
2019-Nov-12 02:05 304 5 gusting 7 14.4
2019-Nov-12 02:00 306 4 gusting 8 14.4
2019-Nov-12 01:55 305 6 gusting 10 14.4
2019-Nov-12 01:50 281 2 gusting 7 14.4
2019-Nov-12 01:45 267 3 gusting 10 14.4
2019-Nov-12 01:40 295 2 gusting 4 14.4
2019-Nov-12 01:35 303 1 gusting 6 15.0
2019-Nov-12 01:30 341 1 gusting 4 15.0
2019-Nov-12 01:25 345 4 gusting 7 15.0
2019-Nov-12 01:20 269 2 gusting 6 15.0
2019-Nov-12 01:15 280 5 gusting 13 15.0
2019-Nov-12 01:10 341 6 gusting 13 15.0
2019-Nov-12 01:05 354 6 gusting 13 15.0
2019-Nov-12 01:00 300 6 gusting 13 15.0
2019-Nov-12 00:55 347 5 gusting 13 15.0
2019-Nov-12 00:50 324 7 gusting 14 15.0
2019-Nov-12 00:45 357 7 gusting 17 15.0
2019-Nov-12 00:40 315 4 gusting 12 15.0
2019-Nov-12 00:35 327 9 gusting 15 15.0
2019-Nov-12 00:30 307 2 gusting 10 15.0
2019-Nov-12 00:25 322 8 gusting 18 15.0
2019-Nov-12 00:20 321 6 gusting 14 15.0
2019-Nov-12 00:15 338 8 gusting 19 15.0
2019-Nov-12 00:10 353 12 gusting 17 15.0
2019-Nov-12 00:05 321 9 gusting 17 15.0
2019-Nov-12 00:00 318 5 gusting 12 15.0
2019-Nov-11 23:55 312 6 gusting 13 15.0
2019-Nov-11 23:50 323 9 gusting 20 15.0
2019-Nov-11 23:45 322 6 gusting 12 15.0
2019-Nov-11 23:40 319 6 gusting 12 15.0
2019-Nov-11 23:35 318 6 gusting 12 15.6
2019-Nov-11 23:30 338 7 gusting 13 15.6
2019-Nov-11 23:25 314 10 gusting 15 15.6
2019-Nov-11 23:20 335 7 gusting 13 15.6
2019-Nov-11 23:15 322 8 gusting 14 15.6
2019-Nov-11 23:10 340 7 gusting 19 15.6
2019-Nov-11 23:05 343 11 gusting 19 15.6
2019-Nov-11 23:00 346 8 gusting 14 15.6
2019-Nov-11 22:55 345 8 gusting 14 15.6
2019-Nov-11 22:50 327 10 gusting 17 15.6
2019-Nov-11 22:45 321 6 gusting 11 15.0
2019-Nov-11 22:40 338 2 gusting 6 15.0
2019-Nov-11 22:35 15.6
2019-Nov-11 22:30 15.6
2019-Nov-11 22:25 335 2 gusting 8 15.6
2019-Nov-11 22:20 334 4 gusting 7 15.6
2019-Nov-11 22:15 314 2 gusting 5 15.6
2019-Nov-11 22:10 279 5 gusting 6 15.6
2019-Nov-11 22:05 337 2 gusting 6 15.6
2019-Nov-11 22:00 328 3 gusting 6 15.6
2019-Nov-11 21:55 341 3 gusting 6 15.6
2019-Nov-11 21:50 314 1 gusting 4 15.6
2019-Nov-11 21:45 324 6 gusting 10 15.6
2019-Nov-11 21:40 319 6 gusting 10 15.6
2019-Nov-11 21:35 297 5 gusting 10 15.6
2019-Nov-11 21:30 303 6 gusting 11 15.0
2019-Nov-11 21:25 299 2 gusting 6 15.0
2019-Nov-11 21:20 306 2 gusting 8 15.0
2019-Nov-11 21:15 298 2 gusting 4 15.0
2019-Nov-11 21:10 294 2 gusting 8 15.0
2019-Nov-11 21:05 294 4 gusting 8 15.0
2019-Nov-11 21:00 304 3 gusting 6 15.0
2019-Nov-11 20:55 300 2 gusting 6 15.0
2019-Nov-11 20:50 292 2 gusting 4 14.4
2019-Nov-11 20:45 307 3 gusting 7 14.4
2019-Nov-11 20:40 288 2 gusting 6 14.4
2019-Nov-11 20:35 286 2 gusting 6 13.9
2019-Nov-11 20:30 294 4 gusting 6 13.3
2019-Nov-11 20:25 357 0 gusting 2 12.8
2019-Nov-11 20:20 13.3
2019-Nov-11 20:15 13.3
2019-Nov-11 20:10 13.9
2019-Nov-11 20:05 13.9
2019-Nov-11 20:00 14.4
2019-Nov-11 19:55 333 1 gusting 6 14.4
2019-Nov-11 19:50 300 1 gusting 2 13.9
2019-Nov-11 19:45 300 2 gusting 6 14.4
2019-Nov-11 19:40 301 2 gusting 6 14.4
2019-Nov-11 19:35 292 5 gusting 8 13.9
2019-Nov-11 19:30 289 4 gusting 8 13.9
2019-Nov-11 19:25 303 5 gusting 7 13.9
2019-Nov-11 19:20 294 4 gusting 7 13.9
2019-Nov-11 19:15 295 4 gusting 6 14.4
2019-Nov-11 19:10 305 3 gusting 8 14.4
2019-Nov-11 19:05 299 4 gusting 7 14.4
2019-Nov-11 19:00 290 5 gusting 10 14.4
2019-Nov-11 18:55 307 5 gusting 11 14.4
2019-Nov-11 18:50 315 6 gusting 12 14.4
2019-Nov-11 18:45 306 5 gusting 11 14.4
2019-Nov-11 18:40 300 4 gusting 10 14.4
2019-Nov-11 18:35 309 5 gusting 7 13.9
2019-Nov-11 18:30 288 5 gusting 8 13.9
2019-Nov-11 18:25 297 4 gusting 8 13.9
2019-Nov-11 18:20 289 4 gusting 7 13.9
2019-Nov-11 18:15 276 2 gusting 6 13.9
2019-Nov-11 18:10 311 2 gusting 8 13.9
2019-Nov-11 18:05 298 2 gusting 8 13.9
2019-Nov-11 18:00 302 4 gusting 6 13.9
2019-Nov-11 17:55 276 4 gusting 7 13.9
2019-Nov-11 17:50 277 2 gusting 6 14.4
2019-Nov-11 17:45 297 2 gusting 8 14.4
2019-Nov-11 17:40 317 4 gusting 10 13.9
2019-Nov-11 17:35 277 2 gusting 7 13.9
2019-Nov-11 17:30 294 2 gusting 6 14.4
2019-Nov-11 17:25 288 2 gusting 6 14.4
2019-Nov-11 17:20 300 5 gusting 7 14.4
2019-Nov-11 17:15 300 2 gusting 4 14.4
2019-Nov-11 17:10 299 2 gusting 6 14.4
2019-Nov-11 17:05 290 0 gusting 6 14.4
2019-Nov-11 17:00 331 2 gusting 8 14.4
2019-Nov-11 16:55 280 4 gusting 7 14.4
2019-Nov-11 16:50 320 2 gusting 6 14.4
2019-Nov-11 16:45 308 4 gusting 6 14.4
2019-Nov-11 16:40 306 6 gusting 12 14.4
2019-Nov-11 16:35 314 4 gusting 7 14.4
2019-Nov-11 16:30 325 6 gusting 10 14.4
2019-Nov-11 16:25 325 6 gusting 8 14.4
2019-Nov-11 16:20 305 6 gusting 11 14.4
2019-Nov-11 16:15 342 6 gusting 11 14.4
2019-Nov-11 16:10 318 7 gusting 13 15.0
2019-Nov-11 16:05 334 7 gusting 13 15.0
2019-Nov-11 16:00 326 5 gusting 13 15.0
2019-Nov-11 15:55 314 5 gusting 10 15.0
2019-Nov-11 15:50 326 7 gusting 12 15.0
2019-Nov-11 15:45 319 6 gusting 11 15.0
2019-Nov-11 15:40 336 5 gusting 11 15.0
2019-Nov-11 15:35 321 6 gusting 10 15.0
2019-Nov-11 15:30 325 4 gusting 10 15.0
2019-Nov-11 15:25 329 6 gusting 10 15.6
2019-Nov-11 15:20 320 5 gusting 12 15.6
2019-Nov-11 15:15 320 8 gusting 12 15.6
2019-Nov-11 15:10 327 7 gusting 10 15.6
2019-Nov-11 15:05 320 5 gusting 12 15.6
2019-Nov-11 15:00 332 6 gusting 12 15.6
2019-Nov-11 14:55 334 6 gusting 11 15.6
2019-Nov-11 14:50 330 5 gusting 11 16.1
2019-Nov-11 14:45 333 5 gusting 14 15.6
2019-Nov-11 14:40 341 8 gusting 11 15.6
2019-Nov-11 14:35 338 6 gusting 12 15.6
2019-Nov-11 14:30 351 6 gusting 13 16.1
2019-Nov-11 14:25 345 8 gusting 13 16.1
2019-Nov-11 14:20 338 8 gusting 12 16.1
2019-Nov-11 14:15 018 6 gusting 11 16.1
2019-Nov-11 14:10 337 7 gusting 13 16.1
2019-Nov-11 14:05 007 8 gusting 13 16.1
2019-Nov-11 14:00 326 6 gusting 11 16.1
2019-Nov-11 13:55 314 6 gusting 10 16.1
2019-Nov-11 13:50 343 5 gusting 13 16.1
2019-Nov-11 13:45 310 6 gusting 14 16.1
2019-Nov-11 13:40 303 5 gusting 10 16.1
2019-Nov-11 13:35 321 6 gusting 10 16.1
2019-Nov-11 13:30 353 5 gusting 13 15.6
2019-Nov-11 13:25 353 6 gusting 12 15.6
2019-Nov-11 13:20 332 5 gusting 12 15.6
2019-Nov-11 13:15 325 8 gusting 14 15.6
2019-Nov-11 13:10 315 6 gusting 11 15.6
2019-Nov-11 13:05 341 6 gusting 12 15.6
2019-Nov-11 13:00 004 4 gusting 11 15.6
2019-Nov-11 12:55 318 6 gusting 13 15.6
2019-Nov-11 12:50 329 6 gusting 13 15.0
2019-Nov-11 12:45 338 9 gusting 14 15.0
2019-Nov-11 12:40 331 9 gusting 17 15.0
2019-Nov-11 12:35 342 8 gusting 14 15.0
2019-Nov-11 12:30 341 10 gusting 15 15.0
2019-Nov-11 12:25 343 7 gusting 14 15.0
2019-Nov-11 12:20 348 10 gusting 19 15.6
2019-Nov-11 12:15 357 6 gusting 13 15.6
2019-Nov-11 12:10 302 2 gusting 10 16.1
2019-Nov-11 12:05 342 6 gusting 13 16.1
2019-Nov-11 12:00 313 7 gusting 12 15.6
2019-Nov-11 11:55 310 8 gusting 17 15.6
2019-Nov-11 11:50 326 6 gusting 17 15.6
2019-Nov-11 11:45 314 8 gusting 17 15.6
2019-Nov-11 11:40 345 4 gusting 12 15.6
2019-Nov-11 11:35 285 7 gusting 13 15.6
2019-Nov-11 11:30 315 10 gusting 18 15.6
2019-Nov-11 11:25 308 6 gusting 15 15.6
2019-Nov-11 11:20 336 7 gusting 13 15.0
2019-Nov-11 11:15 312 7 gusting 18 15.0
2019-Nov-11 11:10 285 9 gusting 17 15.0
2019-Nov-11 11:05 318 10 gusting 15 15.0
2019-Nov-11 11:00 298 6 gusting 11 15.0
2019-Nov-11 10:55 311 4 gusting 10 15.0
2019-Nov-11 10:50 332 3 gusting 10 15.0
2019-Nov-11 10:45 335 7 gusting 14 15.0
2019-Nov-11 10:40 300 6 gusting 10 15.0
2019-Nov-11 10:35 293 6 gusting 15 15.0
2019-Nov-11 10:30 309 6 gusting 13 15.0
2019-Nov-11 10:25 283 8 gusting 14 15.0
2019-Nov-11 10:20 299 6 gusting 13 15.0
2019-Nov-11 10:15 286 9 gusting 17 15.0
2019-Nov-11 10:10 293 7 gusting 14 15.0
2019-Nov-11 10:05 310 2 gusting 12 15.0
2019-Nov-11 10:00 279 3 gusting 10 15.0
2019-Nov-11 09:55 325 6 gusting 15 15.0
2019-Nov-11 09:50 295 7 gusting 12 15.0
2019-Nov-11 09:45 301 9 gusting 18 15.0
2019-Nov-11 09:40 323 10 gusting 17 15.0
2019-Nov-11 09:35 319 6 gusting 15 15.0
2019-Nov-11 09:30 297 7 gusting 11 15.0
2019-Nov-11 09:25 305 7 gusting 19 14.4
2019-Nov-11 09:20 332 12 gusting 17 14.4
2019-Nov-11 09:15 303 12 gusting 18 14.4
2019-Nov-11 09:10 310 7 gusting 13 14.4
2019-Nov-11 09:05 331 7 gusting 13 14.4
2019-Nov-11 09:00 306 8 gusting 13 14.4
2019-Nov-11 08:55 311 7 gusting 14 14.4
2019-Nov-11 08:50 316 10 gusting 17 14.4
2019-Nov-11 08:45 310 7 gusting 14 14.4
2019-Nov-11 08:40 296 8 gusting 12 14.4
2019-Nov-11 08:35 318 8 gusting 14 14.4
2019-Nov-11 08:30 341 6 gusting 13 14.4
2019-Nov-11 08:25 331 5 gusting 10 14.4
2019-Nov-11 08:20 323 7 gusting 10 14.4
2019-Nov-11 08:15 305 6 gusting 10 14.4
2019-Nov-11 08:10 318 5 gusting 10 13.9
2019-Nov-11 08:05 315 5 gusting 8 13.9
2019-Nov-11 08:00 284 5 gusting 10 13.9
2019-Nov-11 07:55 286 7 gusting 15 13.9
2019-Nov-11 07:50 312 6 gusting 13 13.9
2019-Nov-11 07:45 313 4 gusting 7 13.9
2019-Nov-11 07:40 322 4 gusting 10 13.9
2019-Nov-11 07:35 303 6 gusting 12 13.9
2019-Nov-11 07:30 332 5 gusting 10 13.9
2019-Nov-11 07:25 303 7 gusting 12 13.3
2019-Nov-11 07:20 298 5 gusting 8 13.3
2019-Nov-11 07:15 329 4 gusting 8 13.3
2019-Nov-11 07:10 313 5 gusting 7 13.3
2019-Nov-11 07:05 319 5 gusting 7 13.3
2019-Nov-11 07:00 334 6 gusting 10 13.3
2019-Nov-11 06:55 337 4 gusting 10 13.3
2019-Nov-11 06:50 320 8 gusting 13 13.3
2019-Nov-11 06:45 353 4 gusting 8 13.3
2019-Nov-11 06:40 340 4 gusting 17 13.3
2019-Nov-11 06:35 331 7 gusting 12 13.3
2019-Nov-11 06:30 333 8 gusting 13 13.3
2019-Nov-11 06:25 340 7 gusting 13 13.3
2019-Nov-11 06:20 354 7 gusting 14 13.3
2019-Nov-11 06:15 333 4 gusting 10 13.3
2019-Nov-11 06:10 304 7 gusting 13 13.3
2019-Nov-11 06:05 335 6 gusting 10 13.3
2019-Nov-11 06:00 325 7 gusting 13 13.3
2019-Nov-11 05:55 342 6 gusting 13 13.3
2019-Nov-11 05:50 341 5 gusting 12 13.3
2019-Nov-11 05:45 298 8 gusting 14 13.3
2019-Nov-11 05:40 302 8 gusting 14 13.3
2019-Nov-11 05:35 300 5 gusting 15 13.3
2019-Nov-11 05:30 317 5 gusting 13 13.3
2019-Nov-11 05:25 302 7 gusting 11 13.3
2019-Nov-11 05:20 309 6 gusting 10 13.3
2019-Nov-11 05:15 297 6 gusting 15 13.3
2019-Nov-11 05:10 325 7 gusting 15 13.3
2019-Nov-11 05:05 333 7 gusting 13 13.3
2019-Nov-11 05:00 324 7 gusting 13 13.3
2019-Nov-11 04:55 297 6 gusting 11 12.8
2019-Nov-11 04:50 319 5 gusting 10 13.3
2019-Nov-11 04:45 300 6 gusting 14 12.8
2019-Nov-11 04:40 313 5 gusting 13 12.8
2019-Nov-11 04:35 321 4 gusting 11 12.8
2019-Nov-11 04:30 299 3 gusting 11 12.8
2019-Nov-11 04:25 303 5 gusting 10 12.8
2019-Nov-11 04:20 314 6 gusting 10 12.8
2019-Nov-11 04:15 294 2 gusting 12 12.8
2019-Nov-11 04:10 297 6 gusting 13 12.8
2019-Nov-11 04:05 295 5 gusting 8 12.8
2019-Nov-11 04:00 321 5 gusting 6 12.8
2019-Nov-11 03:55 317 5 gusting 10 12.8
2019-Nov-11 03:50 315 5 gusting 10 12.8
2019-Nov-11 03:45 332 3 gusting 7 12.8
2019-Nov-11 03:40 316 4 gusting 7 12.8
2019-Nov-11 03:35 290 3 gusting 6 12.8
2019-Nov-11 03:30 316 2 gusting 6 12.8
2019-Nov-11 03:25 293 3 gusting 6 13.3
2019-Nov-11 03:20 281 2 gusting 10 13.3
2019-Nov-11 03:15 318 5 gusting 11 13.3
2019-Nov-11 03:10 344 3 gusting 8 13.3
2019-Nov-11 03:05 323 4 gusting 7 13.3
2019-Nov-11 03:00 334 5 gusting 10 13.3
2019-Nov-11 02:55 333 6 gusting 13 13.3
2019-Nov-11 02:50 325 6 gusting 11 13.3
2019-Nov-11 02:45 323 8 gusting 13 13.3
2019-Nov-11 02:40 326 6 gusting 10 13.3
2019-Nov-11 02:35 308 4 gusting 6 13.3
2019-Nov-11 02:30 333 6 gusting 10 13.3
2019-Nov-11 02:25 322 6 gusting 10 13.3
2019-Nov-11 02:20 319 6 gusting 14 12.8
2019-Nov-11 02:15 355 6 gusting 14 12.8
2019-Nov-11 02:10 328 6 gusting 10 12.8
2019-Nov-11 02:05 341 7 gusting 12 13.3
2019-Nov-11 02:00 335 9 gusting 13 13.3
2019-Nov-11 01:55 339 8 gusting 14 13.3
2019-Nov-11 01:50 355 10 gusting 17 13.3
2019-Nov-11 01:45 325 11 gusting 15 13.3
2019-Nov-11 01:40 340 11 gusting 15 13.3
2019-Nov-11 01:35 001 9 gusting 17 13.3
2019-Nov-11 01:30 332 13 gusting 19 13.3
2019-Nov-11 01:25 336 8 gusting 19 13.3
2019-Nov-11 01:20 344 10 gusting 17 13.3
2019-Nov-11 01:15 309 7 gusting 13 13.3
2019-Nov-11 01:10 346 7 gusting 14 13.3
2019-Nov-11 01:05 317 8 gusting 13 13.3
2019-Nov-11 01:00 330 10 gusting 17 13.3
2019-Nov-11 00:55 324 8 gusting 13 12.8
2019-Nov-11 00:50 337 10 gusting 14 12.8
2019-Nov-11 00:45 345 6 gusting 11 12.8
2019-Nov-11 00:40 326 7 gusting 15 12.8
2019-Nov-11 00:35 348 8 gusting 14 13.3
2019-Nov-11 00:30 335 11 gusting 18 13.3
2019-Nov-11 00:25 332 8 gusting 13 12.8
2019-Nov-11 00:20 332 7 gusting 13 12.8
2019-Nov-11 00:15 328 10 gusting 14 13.3
2019-Nov-11 00:10 331 8 gusting 13 12.8
2019-Nov-11 00:05 350 8 gusting 13 12.8
2019-Nov-11 00:00 344 6 gusting 13 13.3
2019-Nov-10 23:55 329 7 gusting 12 13.3
2019-Nov-10 23:50 337 6 gusting 19 13.3
2019-Nov-10 23:45 344 8 gusting 15 13.3
2019-Nov-10 23:40 326 5 gusting 12 13.3
2019-Nov-10 23:35 350 5 gusting 13 13.3
2019-Nov-10 23:30 356 3 gusting 10 13.3
2019-Nov-10 23:25 335 6 gusting 13 13.3
2019-Nov-10 23:20 325 6 gusting 13 13.9
2019-Nov-10 23:15 333 9 gusting 15 13.9
2019-Nov-10 23:10 334 8 gusting 15 13.9
2019-Nov-10 23:05 317 7 gusting 11 13.9
2019-Nov-10 23:00 334 7 gusting 15 13.9
2019-Nov-10 22:55 349 7 gusting 14 13.9
2019-Nov-10 22:50 322 11 gusting 14 13.9
2019-Nov-10 22:45 339 8 gusting 15 13.9
2019-Nov-10 22:40 322 11 gusting 20 13.9
2019-Nov-10 22:35 345 10 gusting 18 13.9
2019-Nov-10 22:30 328 10 gusting 15 13.9
2019-Nov-10 22:25 327 10 gusting 17 13.9
2019-Nov-10 22:20 324 5 gusting 11 13.9
2019-Nov-10 22:15 340 8 gusting 14 13.9
2019-Nov-10 22:10 309 8 gusting 17 13.9
2019-Nov-10 22:05 324 10 gusting 14 13.9
2019-Nov-10 22:00 335 11 gusting 19 13.9
2019-Nov-10 21:55 320 9 gusting 17 13.9
2019-Nov-10 21:50 326 8 gusting 18 13.9
2019-Nov-10 21:45 356 8 gusting 13 13.9
2019-Nov-10 21:40 348 7 gusting 18 13.9
2019-Nov-10 21:35 333 12 gusting 19 13.9
2019-Nov-10 21:30 327 8 gusting 15 13.9
2019-Nov-10 21:25 346 7 gusting 12 13.9
2019-Nov-10 21:20 335 6 gusting 11 13.9
2019-Nov-10 21:15 321 5 gusting 13 13.9
2019-Nov-10 21:10 316 9 gusting 17 13.9
2019-Nov-10 21:05 344 10 gusting 19 13.9
2019-Nov-10 21:00 354 6 gusting 14 13.9
2019-Nov-10 20:55 278 10 gusting 15 13.9
2019-Nov-10 20:50 329 8 gusting 17 14.4
2019-Nov-10 20:45 326 7 gusting 17 14.4
2019-Nov-10 20:40 328 9 gusting 19 14.4
2019-Nov-10 20:35 352 6 gusting 14 14.4
2019-Nov-10 20:30 330 8 gusting 19 14.4
2019-Nov-10 20:25 317 8 gusting 17 14.4
2019-Nov-10 20:20 337 9 gusting 19 14.4
2019-Nov-10 20:15 335 9 gusting 17 14.4
2019-Nov-10 20:10 350 6 gusting 13 14.4
2019-Nov-10 20:05 344 9 gusting 14 14.4
2019-Nov-10 20:00 343 11 gusting 17 14.4
2019-Nov-10 19:55 355 12 gusting 15 14.4
2019-Nov-10 19:50 330 8 gusting 15 14.4
2019-Nov-10 19:45 356 9 gusting 18 14.4
2019-Nov-10 19:40 329 13 gusting 20 14.4
2019-Nov-10 19:35 352 8 gusting 17 14.4
2019-Nov-10 19:30 327 6 gusting 15 14.4
2019-Nov-10 19:25 353 10 gusting 17 14.4
2019-Nov-10 19:20 349 7 gusting 14 14.4
2019-Nov-10 19:15 315 6 gusting 13 14.4
2019-Nov-10 19:10 350 7 gusting 13 15.0
2019-Nov-10 19:05 296 7 gusting 13 14.4
2019-Nov-10 19:00 320 7 gusting 14 14.4
2019-Nov-10 18:55 338 4 gusting 17 14.4
2019-Nov-10 18:50 332 7 gusting 13 14.4
2019-Nov-10 18:45 324 6 gusting 10 14.4
2019-Nov-10 18:40 346 6 gusting 17 14.4
2019-Nov-10 18:35 325 8 gusting 14 14.4
2019-Nov-10 18:30 354 7 gusting 13 14.4
2019-Nov-10 18:25 340 5 gusting 17 14.4
2019-Nov-10 18:20 343 6 gusting 17 14.4
2019-Nov-10 18:15 340 6 gusting 12 14.4
2019-Nov-10 18:10 332 6 gusting 15 15.0
2019-Nov-10 18:05 339 7 gusting 17 15.0
2019-Nov-10 18:00 341 6 gusting 10 15.0
2019-Nov-10 17:55 334 6 gusting 13 15.0
2019-Nov-10 17:50 001 6 gusting 13 15.0
2019-Nov-10 17:45 318 6 gusting 12 15.0
2019-Nov-10 17:40 319 10 gusting 17 15.0
2019-Nov-10 17:35 313 12 gusting 19 15.0
2019-Nov-10 17:30 313 8 gusting 13 14.4
2019-Nov-10 17:25 305 6 gusting 13 14.4
2019-Nov-10 17:20 308 6 gusting 13 14.4
2019-Nov-10 17:15 307 7 gusting 11 14.4
2019-Nov-10 17:10 305 7 gusting 12 14.4
2019-Nov-10 17:05 297 8 gusting 14 14.4
2019-Nov-10 17:00 306 7 gusting 14 14.4
2019-Nov-10 16:55 323 7 gusting 13 14.4
2019-Nov-10 16:50 297 8 gusting 14 14.4
2019-Nov-10 16:45 299 7 gusting 11 14.4
2019-Nov-10 16:40 306 6 gusting 13 15.0
2019-Nov-10 16:35 310 6 gusting 10 15.0
2019-Nov-10 16:30 293 7 gusting 11 15.0
2019-Nov-10 16:25 311 4 gusting 7 15.0
2019-Nov-10 16:20 323 6 gusting 12 15.0
2019-Nov-10 16:15 278 4 gusting 10 15.0
2019-Nov-10 16:10 324 6 gusting 11 15.0
2019-Nov-10 16:05 285 7 gusting 12 15.0
2019-Nov-10 16:00 284 7 gusting 13 15.0
2019-Nov-10 15:55 305 8 gusting 13 15.0
2019-Nov-10 15:50 296 3 gusting 14 15.6
2019-Nov-10 15:45 301 10 gusting 17 15.0
2019-Nov-10 15:40 318 7 gusting 14 15.6
2019-Nov-10 15:35 287 8 gusting 13 15.0
2019-Nov-10 15:30 283 7 gusting 13 15.0
2019-Nov-10 15:25 321 10 gusting 17 15.0
2019-Nov-10 15:20 303 10 gusting 17 15.6
2019-Nov-10 15:15 301 7 gusting 13 15.6
2019-Nov-10 15:10 296 6 gusting 13 15.0
2019-Nov-10 15:05 330 8 gusting 19 15.0
2019-Nov-10 15:00 343 7 gusting 14 15.6
2019-Nov-10 14:55 336 8 gusting 14 15.6
2019-Nov-10 14:50 343 9 gusting 17 15.0
2019-Nov-10 14:45 343 10 gusting 18 15.0
2019-Nov-10 14:40 329 7 gusting 18 15.0
2019-Nov-10 14:35 314 6 gusting 17 15.0
2019-Nov-10 14:30 333 7 gusting 13 15.0
2019-Nov-10 14:25 329 4 gusting 11 15.0
2019-Nov-10 14:20 354 5 gusting 10 15.0
2019-Nov-10 14:15 006 6 gusting 12 15.0
2019-Nov-10 14:10 344 8 gusting 13 15.0
2019-Nov-10 14:05 004 15 gusting 22 15.0
2019-Nov-10 14:00 350 6 gusting 13 15.0
2019-Nov-10 13:55 316 6 gusting 25 14.4
2019-Nov-10 13:50 006 9 gusting 25 15.0
2019-Nov-10 13:45 006 10 gusting 17 14.4
2019-Nov-10 13:40 336 11 gusting 18 14.4
2019-Nov-10 13:35 317 11 gusting 18 14.4
2019-Nov-10 13:30 336 6 gusting 15 15.0
2019-Nov-10 13:25 300 5 gusting 18 15.0
2019-Nov-10 13:20 357 10 gusting 15 15.0
2019-Nov-10 13:15 335 10 gusting 19 15.0
2019-Nov-10 13:10 308 5 gusting 17 15.0
2019-Nov-10 13:05 309 10 gusting 18 15.0
2019-Nov-10 13:00 334 12 gusting 18 15.0
2019-Nov-10 12:55 339 7 gusting 19 15.0
2019-Nov-10 12:50 006 15 gusting 22 14.4
2019-Nov-10 12:45 356 13 gusting 22 14.4
2019-Nov-10 12:40 356 14 gusting 28 14.4
2019-Nov-10 12:35 333 13 gusting 22 14.4
2019-Nov-10 12:30 342 14 gusting 22 14.4
2019-Nov-10 12:25 357 11 gusting 19 14.4
2019-Nov-10 12:20 342 13 gusting 22 14.4
2019-Nov-10 12:15 349 12 gusting 22 14.4
2019-Nov-10 12:10 345 13 gusting 22 14.4
2019-Nov-10 12:05 007 11 gusting 30 14.4
2019-Nov-10 12:00 347 16 gusting 26 13.9
2019-Nov-10 11:55 346 14 gusting 22 13.9
2019-Nov-10 11:50 13.9
2019-Nov-10 11:45 358 16 gusting 27 13.9
2019-Nov-10 11:40 347 13 gusting 26 13.9
2019-Nov-10 11:35 326 18 gusting 26 13.3
2019-Nov-10 11:30 334 13 gusting 21 13.3
2019-Nov-10 11:25 351 14 gusting 21 13.3
2019-Nov-10 11:20 342 14 gusting 25 13.3
2019-Nov-10 11:15 338 11 gusting 19 13.3
2019-Nov-10 11:10 344 10 gusting 17 13.3
2019-Nov-10 11:05 351 11 gusting 19 13.3
2019-Nov-10 11:00 334 8 gusting 21 13.3
2019-Nov-10 10:55 351 10 gusting 17 12.8
2019-Nov-10 10:50 333 10 gusting 18 12.8
2019-Nov-10 10:45 353 11 gusting 18 12.2
2019-Nov-10 10:40 347 4 gusting 8 12.2
2019-Nov-10 10:35 326 5 gusting 10 12.2
2019-Nov-10 10:30 296 7 gusting 20 12.2
2019-Nov-10 10:25 340 8 gusting 21 12.2
2019-Nov-10 10:20 348 14 gusting 30 12.8
2019-Nov-10 10:15 13.9
2019-Nov-10 10:10 353 10 gusting 17 13.9
2019-Nov-10 10:05 330 11 gusting 22 13.9
2019-Nov-10 10:00 343 11 gusting 19 14.4
2019-Nov-10 09:55 317 11 gusting 17 14.4
2019-Nov-10 09:50 321 14 gusting 26 14.4
2019-Nov-10 09:45 316 13 gusting 19 14.4
2019-Nov-10 09:40 323 13 gusting 24 14.4
2019-Nov-10 09:35 334 13 gusting 21 14.4
2019-Nov-10 09:30 307 12 gusting 18 14.4
2019-Nov-10 09:25 338 8 gusting 13 14.4
2019-Nov-10 09:20 331 6 gusting 12 14.4
2019-Nov-10 09:15 342 14 gusting 25 14.4
2019-Nov-10 09:10 327 14 gusting 22 14.4
2019-Nov-10 09:05 333 12 gusting 21 14.4
2019-Nov-10 09:00 325 12 gusting 22 14.4
2019-Nov-10 08:55 327 12 gusting 22 14.4
2019-Nov-10 08:50 317 11 gusting 19 13.9
2019-Nov-10 08:45 002 12 gusting 20 13.9
2019-Nov-10 08:40 332 11 gusting 17 13.9
2019-Nov-10 08:35 314 12 gusting 19 13.9
2019-Nov-10 08:30 292 10 gusting 20 13.9
2019-Nov-10 08:25 321 11 gusting 19 14.4
2019-Nov-10 08:20 350 7 gusting 19 13.9
2019-Nov-10 08:15 315 13 gusting 22 13.9
2019-Nov-10 08:10 297 13 gusting 18 13.9
2019-Nov-10 08:05 315 7 gusting 17 13.9
2019-Nov-10 08:00 295 9 gusting 18 13.9
2019-Nov-10 07:55 317 7 gusting 17 13.9
2019-Nov-10 07:50 323 9 gusting 14 13.9
2019-Nov-10 07:45 306 13 gusting 17 13.9
2019-Nov-10 07:40 302 10 gusting 18 13.9
2019-Nov-10 07:35 293 5 gusting 12 13.9
2019-Nov-10 07:30 334 8 gusting 14 13.9
2019-Nov-10 07:25 288 4 gusting 10 13.9
2019-Nov-10 07:20 350 7 gusting 17 13.9
2019-Nov-10 07:15 322 10 gusting 18 13.9
2019-Nov-10 07:10 339 4 gusting 10 13.9
2019-Nov-10 07:05 311 6 gusting 11 13.9
2019-Nov-10 07:00 329 10 gusting 17 13.9
2019-Nov-10 06:55 280 4 gusting 15 13.9
2019-Nov-10 06:50 325 9 gusting 17 13.9
2019-Nov-10 06:45 317 6 gusting 17 13.9
2019-Nov-10 06:40 292 7 gusting 20 13.9
2019-Nov-10 06:35 313 7 gusting 13 13.9
2019-Nov-10 06:30 308 10 gusting 17 13.9
2019-Nov-10 06:25 306 11 gusting 15 13.9
2019-Nov-10 06:20 321 11 gusting 21 13.9
2019-Nov-10 06:15 329 11 gusting 17 13.9
2019-Nov-10 06:10 336 10 gusting 20 13.9
2019-Nov-10 06:05 305 12 gusting 22 13.9
2019-Nov-10 06:00 323 6 gusting 14 13.9
2019-Nov-10 05:55 306 7 gusting 13 13.9
2019-Nov-10 05:50 285 4 gusting 14 13.9
2019-Nov-10 05:45 322 3 gusting 10 13.9
2019-Nov-10 05:40 321 5 gusting 11 13.3
2019-Nov-10 05:35 316 0 gusting 6 13.3
2019-Nov-10 05:30 332 5 gusting 10 13.3
2019-Nov-10 05:25 346 6 gusting 14 13.3
2019-Nov-10 05:20 310 6 gusting 15 13.3
2019-Nov-10 05:15 335 8 gusting 17 13.3
2019-Nov-10 05:10 330 4 gusting 11 13.3
2019-Nov-10 05:05 316 5 gusting 10 13.3
2019-Nov-10 05:00 325 5 gusting 14 13.3